createdAt,value
2018-05-08T00:01:17.713Z,78.50
2018-05-08T00:03:43.925Z,80.60
2018-05-08T00:06:10.168Z,80.20
2018-05-08T00:08:36.373Z,83.60
2018-05-08T00:11:03.717Z,83.80
2018-05-08T00:13:30.341Z,83.70
2018-05-08T00:15:56.572Z,85.00
2018-05-08T00:18:22.792Z,83.30
2018-05-08T00:20:49.607Z,86.30
2018-05-08T00:23:15.815Z,83.80
2018-05-08T00:25:42.408Z,83.00
2018-05-08T00:28:09.109Z,84.60
2018-05-08T00:30:36.417Z,80.50
2018-05-08T00:33:02.661Z,80.30
2018-05-08T00:35:29.451Z,81.40
2018-05-08T00:37:56.413Z,84.20
2018-05-08T00:40:23.381Z,84.10
2018-05-08T00:42:49.632Z,84.10
2018-05-08T00:45:17.560Z,86.20
2018-05-08T00:47:45.033Z,84.00
2018-05-08T00:50:11.997Z,84.60
2018-05-08T00:52:38.824Z,84.70
2018-05-08T00:55:05.824Z,81.10
2018-05-08T00:57:32.083Z,81.10
2018-05-08T00:59:58.703Z,83.50
2018-05-08T01:02:24.949Z,84.90
2018-05-08T01:04:51.202Z,85.50
2018-05-08T01:07:18.205Z,84.30
2018-05-08T01:09:45.093Z,84.40
2018-05-08T01:12:11.301Z,85.40
2018-05-08T01:14:38.357Z,84.60
2018-05-08T01:17:05.102Z,84.10
2018-05-08T01:19:32.041Z,85.40
2018-05-08T01:21:58.261Z,86.70
2018-05-08T01:24:24.469Z,87.00
2018-05-08T01:26:51.851Z,88.60
2018-05-08T01:29:18.078Z,88.40
2018-05-08T01:31:44.749Z,90.00
2018-05-08T01:34:10.960Z,84.60
2018-05-08T01:36:38.057Z,84.90
2018-05-08T01:39:04.301Z,84.80
2018-05-08T01:41:30.960Z,83.30
2018-05-08T01:43:57.821Z,83.70
2018-05-08T01:46:25.533Z,84.90
2018-05-08T01:48:52.333Z,85.10
2018-05-08T01:51:19.301Z,86.00
2018-05-08T01:53:46.001Z,86.10
2018-05-08T01:56:12.229Z,87.10
2018-05-08T01:58:39.008Z,85.70
2018-05-08T02:01:05.977Z,86.70
2018-05-08T02:03:32.197Z,86.80
2018-05-08T02:05:59.472Z,84.00
2018-05-08T02:08:26.000Z,84.00
2018-05-08T02:10:52.965Z,83.70
2018-05-08T02:13:19.801Z,83.80
2018-05-08T02:15:47.405Z,85.30
2018-05-08T02:18:14.306Z,85.30
2018-05-08T02:20:41.582Z,85.60
2018-05-08T02:23:07.797Z,85.90
2018-05-08T02:25:35.266Z,87.10
2018-05-08T02:28:02.229Z,88.50
2018-05-08T02:30:28.454Z,88.70
2018-05-08T02:33:01.648Z,87.70
2018-05-08T02:35:29.517Z,86.70
2018-05-08T02:37:56.472Z,87.50
2018-05-08T02:40:24.404Z,88.60
2018-05-08T02:42:51.386Z,88.60
2018-05-08T02:45:18.845Z,88.80
2018-05-08T02:47:46.332Z,87.60
2018-05-08T02:50:13.006Z,87.50
2018-05-08T02:52:39.807Z,86.90
2018-05-08T02:55:06.785Z,86.90
2018-05-08T02:57:33.001Z,87.20
2018-05-08T02:59:59.690Z,86.10
2018-05-08T03:02:25.913Z,85.50
2018-05-08T03:04:52.453Z,86.50
2018-05-08T03:07:18.701Z,87.40
2018-05-08T03:09:44.911Z,85.30
2018-05-08T03:12:11.717Z,85.70
2018-05-08T03:14:39.113Z,88.30
2018-05-08T03:17:05.325Z,88.40
2018-05-08T03:19:32.725Z,89.10
2018-05-08T03:21:59.528Z,89.20
2018-05-08T03:24:26.480Z,90.20
2018-05-08T03:26:53.464Z,91.00
2018-05-08T03:29:19.688Z,90.90
2018-05-08T03:31:45.896Z,89.10
2018-05-08T03:34:12.950Z,88.20
2018-05-08T03:36:40.379Z,88.00
2018-05-08T03:39:07.377Z,88.10
2018-05-08T03:41:33.960Z,88.60
2018-05-08T03:44:00.172Z,88.80
2018-05-08T03:46:26.853Z,88.70
2018-05-08T03:48:53.577Z,90.00
2018-05-08T03:51:21.502Z,89.30
2018-05-08T03:53:49.164Z,88.20
2018-05-08T03:56:16.125Z,87.40
2018-05-08T03:58:43.072Z,87.50
2018-05-08T04:01:22.861Z,88.30
2018-05-08T04:04:02.495Z,88.30
2018-05-08T04:09:37.061Z,86.90
2018-05-08T04:12:03.278Z,87.00
2018-05-08T04:14:30.160Z,86.20
2018-05-08T04:16:57.133Z,87.20
2018-05-08T04:19:23.957Z,87.20
2018-05-08T04:21:50.953Z,88.60
2018-05-08T04:24:17.189Z,88.60
2018-05-08T04:26:43.464Z,88.60
2018-05-08T04:29:09.710Z,87.30
2018-05-08T04:31:36.748Z,88.60
2018-05-08T04:34:03.002Z,88.70
2018-05-08T04:36:30.602Z,89.90
2018-05-08T04:38:57.272Z,90.00
2018-05-08T04:41:23.497Z,90.50
2018-05-08T04:43:49.733Z,87.80
2018-05-08T04:46:16.385Z,87.90
2018-05-08T04:48:43.058Z,88.50
2018-05-08T04:51:11.625Z,87.30
2018-05-08T04:53:38.941Z,87.60
2018-05-08T04:56:05.712Z,87.70
2018-05-08T04:58:32.933Z,87.20
2018-05-08T05:00:59.989Z,88.50
2018-05-08T05:03:26.661Z,88.20
2018-05-08T05:05:52.913Z,88.30
2018-05-08T05:08:19.545Z,87.50
2018-05-08T05:10:45.757Z,88.00
2018-05-08T05:13:12.901Z,86.70
2018-05-08T05:15:39.125Z,88.50
2018-05-08T05:18:05.953Z,88.90
2018-05-08T05:20:33.490Z,86.70
2018-05-08T05:22:59.701Z,86.70
2018-05-08T05:25:25.926Z,87.00
2018-05-08T05:27:52.161Z,86.40
2018-05-08T05:30:18.389Z,87.00
2018-05-08T05:32:45.181Z,86.50
2018-05-08T05:35:12.055Z,86.50
2018-05-08T05:37:39.446Z,87.50
2018-05-08T05:40:05.702Z,86.80
2018-05-08T05:42:32.001Z,85.70
2018-05-08T05:44:59.385Z,86.00
2018-05-08T05:47:26.294Z,84.90
2018-05-08T05:49:53.137Z,85.00
2018-05-08T05:52:20.720Z,83.70
2018-05-08T05:54:46.939Z,83.60
2018-05-08T05:57:14.393Z,83.10
2018-05-08T05:59:41.698Z,82.10
2018-05-08T06:02:07.924Z,82.00
2018-05-08T06:04:34.143Z,81.70
2018-05-08T06:07:00.913Z,80.30
2018-05-08T06:09:27.152Z,79.80
2018-05-08T06:11:53.377Z,79.40
2018-05-08T06:14:19.989Z,79.00
2018-05-08T06:16:47.653Z,77.60
2018-05-08T06:19:15.904Z,77.80
2018-05-08T06:21:42.672Z,77.80
2018-05-08T06:24:09.629Z,77.20
2018-05-08T06:26:36.610Z,76.80
2018-05-08T06:29:02.869Z,76.90
2018-05-08T06:31:29.462Z,75.60
2018-05-08T06:33:56.872Z,75.50
2018-05-08T06:36:23.088Z,74.80
2018-05-08T06:38:49.297Z,74.40
2018-05-08T06:41:15.568Z,74.40
2018-05-08T06:43:41.808Z,74.20
2018-05-08T06:46:08.768Z,74.10
2018-05-08T06:48:35.406Z,73.20
2018-05-08T06:51:01.629Z,71.70
2018-05-08T06:53:28.432Z,71.40
2018-05-08T06:55:55.405Z,70.60
2018-05-08T06:58:21.662Z,70.40
2018-05-08T07:00:48.601Z,70.90
2018-05-08T07:03:16.334Z,69.10
2018-05-08T07:05:43.292Z,69.30
2018-05-08T07:08:09.545Z,69.20
2018-05-08T07:10:35.790Z,68.70
2018-05-08T07:13:02.969Z,68.90
2018-05-08T07:15:29.511Z,68.60
2018-05-08T07:17:55.728Z,68.20
2018-05-08T07:20:22.493Z,66.00
2018-05-08T07:22:49.133Z,66.60
2018-05-08T07:25:15.361Z,66.40
2018-05-08T07:27:41.955Z,65.90
2018-05-08T07:30:09.544Z,65.10
2018-05-08T07:32:36.469Z,65.00
2018-05-08T07:35:04.022Z,63.50
2018-05-08T07:37:31.494Z,63.40
2018-05-08T07:39:58.445Z,64.60
2018-05-08T07:42:25.426Z,62.60
2018-05-08T07:44:52.032Z,62.40
2018-05-08T07:47:19.597Z,63.70
2018-05-08T07:49:47.103Z,63.70
2018-05-08T07:52:13.911Z,63.50
2018-05-08T07:54:40.871Z,63.10
2018-05-08T07:57:07.080Z,63.10
2018-05-08T07:59:34.578Z,63.00
2018-05-08T08:02:01.405Z,62.90
2018-05-08T08:04:28.367Z,62.90
2018-05-08T08:06:54.590Z,62.80
2018-05-08T08:09:22.037Z,60.90
2018-05-08T08:11:49.463Z,60.60
2018-05-08T08:14:16.266Z,60.60
2018-05-08T08:16:42.950Z,60.90
2018-05-08T08:19:09.153Z,60.30
2018-05-08T08:21:35.968Z,60.30
2018-05-08T08:24:02.941Z,59.70
2018-05-08T08:26:30.501Z,57.40
2018-05-08T08:28:57.912Z,58.70
2018-05-08T08:31:24.550Z,58.70
2018-05-08T08:33:50.780Z,56.90
2018-05-08T08:36:17.017Z,57.00
2018-05-08T08:38:43.886Z,56.00
2018-05-08T08:41:10.097Z,56.50
2018-05-08T08:43:36.329Z,55.70
2018-05-08T08:46:03.072Z,55.90
2018-05-08T08:48:29.762Z,55.80
2018-05-08T08:50:56.718Z,54.80
2018-05-08T08:53:24.143Z,54.60
2018-05-08T08:55:50.369Z,54.50
2018-05-08T08:58:17.174Z,54.00
2018-05-08T09:00:43.986Z,54.20
2018-05-08T09:03:10.187Z,52.70
2018-05-08T09:05:36.821Z,53.90
2018-05-08T09:08:03.385Z,53.40
2018-05-08T09:10:29.647Z,52.00
2018-05-08T09:12:57.369Z,52.60
2018-05-08T09:15:24.496Z,52.50
2018-05-08T09:17:51.451Z,51.20
2018-05-08T09:20:18.266Z,51.10
2018-05-08T09:22:45.176Z,49.80
2018-05-08T09:25:11.844Z,50.80
2018-05-08T09:27:38.550Z,51.00
2018-05-08T09:30:06.372Z,49.50
2018-05-08T09:32:34.518Z,49.90
2018-05-08T09:35:01.413Z,49.90
2018-05-08T09:37:28.385Z,50.60
2018-05-08T09:39:54.609Z,50.00
2018-05-08T09:42:21.609Z,47.90
2018-05-08T09:44:48.522Z,47.90
2018-05-08T09:47:15.207Z,47.80
2018-05-08T09:49:41.423Z,48.10
2018-05-08T09:52:08.551Z,48.70
2018-05-08T09:54:34.803Z,48.00
2018-05-08T09:57:01.420Z,47.10
2018-05-08T09:59:28.999Z,46.30
2018-05-08T10:01:55.243Z,46.40
2018-05-08T10:04:21.918Z,47.20
2018-05-08T10:06:48.619Z,44.80
2018-05-08T10:09:14.773Z,45.10
2018-05-08T10:11:41.031Z,44.80
2018-05-08T10:14:07.920Z,44.30
2018-05-08T10:16:34.903Z,46.10
2018-05-08T10:19:01.148Z,45.40
2018-05-08T10:21:27.856Z,44.50
2018-05-08T10:23:55.753Z,43.90
2018-05-08T10:26:21.972Z,43.10
2018-05-08T10:28:48.185Z,41.80
2018-05-08T10:31:15.143Z,41.30
2018-05-08T10:33:42.098Z,42.00
2018-05-08T10:36:09.129Z,41.70
2018-05-08T10:38:36.112Z,42.40
2018-05-08T10:41:02.324Z,41.50
2018-05-08T10:43:29.891Z,41.40
2018-05-08T10:45:57.294Z,41.30
2018-05-08T10:48:23.956Z,41.30
2018-05-08T10:50:50.527Z,41.30
2018-05-08T10:53:17.908Z,40.60
2018-05-08T10:55:44.911Z,41.00
2018-05-08T10:58:11.096Z,41.00
2018-05-08T11:00:37.692Z,40.30
2018-05-08T11:03:04.348Z,40.10
2018-05-08T11:05:30.568Z,39.50
2018-05-08T11:07:56.786Z,39.90
2018-05-08T11:10:23.012Z,40.50
2018-05-08T11:12:55.448Z,39.20
2018-05-08T11:15:23.112Z,40.50
2018-05-08T11:17:50.782Z,38.90
2018-05-08T11:20:18.567Z,40.00
2018-05-08T11:22:45.131Z,40.00
2018-05-08T11:25:11.364Z,38.50
2018-05-08T11:27:37.586Z,38.80
2018-05-08T11:30:03.843Z,39.80
2018-05-08T11:32:30.684Z,39.40
2018-05-08T11:34:57.440Z,37.90
2018-05-08T11:37:24.137Z,38.10
2018-05-08T11:39:51.459Z,38.40
2018-05-08T11:42:18.173Z,38.20
2018-05-08T11:44:45.194Z,37.20
2018-05-08T11:47:11.865Z,38.00
2018-05-08T11:49:38.577Z,38.10
2018-05-08T11:52:06.056Z,37.90
2018-05-08T11:54:32.628Z,37.80
2018-05-08T11:56:58.872Z,37.90
2018-05-08T11:59:25.523Z,37.30
2018-05-08T12:01:52.356Z,36.70
2018-05-08T12:04:18.577Z,37.60
2018-05-08T12:06:44.829Z,37.40
2018-05-08T12:09:11.145Z,38.10
2018-05-08T12:11:38.068Z,36.00
2018-05-08T12:14:05.627Z,36.40
2018-05-08T12:16:33.125Z,36.90
2018-05-08T12:19:00.044Z,36.90
2018-05-08T12:21:26.993Z,35.50
2018-05-08T12:23:53.953Z,36.10
2018-05-08T12:26:20.279Z,36.10
2018-05-08T12:28:47.250Z,35.90
2018-05-08T12:31:14.023Z,35.80
2018-05-08T12:33:40.649Z,35.00
2018-05-08T12:36:06.941Z,35.00
2018-05-08T12:38:34.328Z,33.90
2018-05-08T12:41:01.472Z,33.90
2018-05-08T12:43:28.436Z,33.80
2018-05-08T12:45:55.268Z,33.70
2018-05-08T12:48:22.689Z,34.50
2018-05-08T12:50:50.059Z,34.40
2018-05-08T12:53:17.499Z,33.30
2018-05-08T12:55:43.750Z,33.30
2018-05-08T12:58:10.601Z,33.10
2018-05-08T13:00:38.742Z,33.90
2018-05-08T13:03:04.977Z,33.90
2018-05-08T13:05:31.214Z,33.10
2018-05-08T13:07:57.484Z,33.50
2018-05-08T13:10:24.446Z,33.00
2018-05-08T13:12:50.753Z,33.70
2018-05-08T13:15:17.810Z,34.10
2018-05-08T13:17:44.639Z,33.40
2018-05-08T13:20:11.487Z,33.80
2018-05-08T13:22:37.724Z,33.80
2018-05-08T13:25:03.958Z,34.20
2018-05-08T13:27:30.186Z,33.70
2018-05-08T13:29:56.399Z,33.00
2018-05-08T13:32:22.696Z,32.60
2018-05-08T13:34:50.594Z,32.80
2018-05-08T13:37:18.049Z,32.90
2018-05-08T13:39:45.715Z,31.80
2018-05-08T13:42:12.676Z,32.80
2018-05-08T13:44:40.368Z,33.00
2018-05-08T13:47:07.300Z,33.60
2018-05-08T13:49:33.983Z,32.70
2018-05-08T13:52:00.613Z,32.10
2018-05-08T13:54:27.263Z,31.40
2018-05-08T13:56:54.981Z,31.70
2018-05-08T13:59:22.465Z,29.70
2018-05-08T14:01:48.728Z,29.70
2018-05-08T14:04:14.959Z,29.60
2018-05-08T14:06:41.678Z,28.80
2018-05-08T14:09:07.897Z,29.50
2018-05-08T14:11:35.534Z,28.00
2018-05-08T14:14:02.218Z,27.90
2018-05-08T14:16:28.435Z,26.90
2018-05-08T14:18:55.417Z,27.60
2018-05-08T14:21:21.682Z,27.50
2018-05-08T14:23:47.913Z,27.90
2018-05-08T14:26:14.228Z,27.40
2018-05-08T14:28:41.103Z,27.20
2018-05-08T14:31:07.318Z,26.90
2018-05-08T14:33:34.189Z,27.90
2018-05-08T14:36:00.815Z,27.40
2018-05-08T14:38:27.121Z,27.30
2018-05-08T14:40:53.268Z,26.90
2018-05-08T14:43:20.007Z,26.40
2018-05-08T14:45:46.776Z,26.40
2018-05-08T14:48:13.460Z,26.60
2018-05-08T14:50:39.703Z,26.30
2018-05-08T14:53:07.385Z,25.20
2018-05-08T14:55:33.619Z,25.10
2018-05-08T14:58:00.577Z,25.90
2018-05-08T15:00:27.453Z,25.90
2018-05-08T15:02:54.221Z,25.30
2018-05-08T15:05:20.444Z,26.30
2018-05-08T15:07:46.668Z,25.40
2018-05-08T15:10:13.385Z,25.00
2018-05-08T15:12:40.468Z,24.80
2018-05-08T15:15:07.378Z,25.00
2018-05-08T15:17:33.589Z,25.00
2018-05-08T15:19:59.840Z,24.10
2018-05-08T15:22:27.306Z,25.00
2018-05-08T15:24:54.290Z,24.00
2018-05-08T15:27:20.508Z,24.00
2018-05-08T15:29:47.284Z,23.50
2018-05-08T15:32:14.185Z,24.50
2018-05-08T15:34:41.156Z,23.50
2018-05-08T15:37:07.404Z,23.40
2018-05-08T15:39:33.682Z,22.90
2018-05-08T15:42:00.660Z,23.50
2018-05-08T15:44:28.434Z,24.00
2018-05-08T15:46:56.203Z,24.00
2018-05-08T15:49:22.842Z,23.80
2018-05-08T15:51:50.304Z,23.70
2018-05-08T15:54:17.294Z,23.50
2018-05-08T15:56:43.493Z,23.60
2018-05-08T15:59:10.534Z,23.50
2018-05-08T16:01:37.505Z,24.50
2018-05-08T16:04:03.729Z,24.40
2018-05-08T16:06:30.414Z,24.70
2018-05-08T16:08:56.633Z,24.80
2018-05-08T16:11:23.200Z,24.90
2018-05-08T16:13:50.102Z,24.70
2018-05-08T16:16:16.330Z,24.80
2018-05-08T16:18:43.753Z,25.60
2018-05-08T16:21:09.977Z,25.50
2018-05-08T16:23:36.192Z,25.50
2018-05-08T16:26:02.470Z,26.00
2018-05-08T16:28:29.464Z,26.50
2018-05-08T16:30:56.272Z,25.90
2018-05-08T16:33:22.506Z,27.30
2018-05-08T16:35:48.724Z,27.70
2018-05-08T16:38:15.618Z,29.10
2018-05-08T16:40:42.315Z,29.10
2018-05-08T16:43:09.327Z,29.90
2018-05-08T16:45:35.983Z,29.70
2018-05-08T16:48:02.729Z,30.50
2018-05-08T16:50:28.958Z,31.70
2018-05-08T16:52:55.726Z,33.40
2018-05-08T16:55:21.936Z,34.40
2018-05-08T16:57:48.956Z,34.20
2018-05-08T17:00:16.399Z,35.40
2018-05-08T17:02:42.600Z,35.30
2018-05-08T17:05:09.802Z,35.70
2018-05-08T17:07:37.420Z,36.00
2018-05-08T17:10:04.098Z,35.90
2018-05-08T17:12:30.333Z,36.70
2018-05-08T17:14:57.644Z,37.60
2018-05-08T17:17:23.868Z,36.90
2018-05-08T17:19:50.108Z,36.50
2018-05-08T17:22:16.365Z,36.70
2018-05-08T17:24:42.636Z,36.40
2018-05-08T17:27:10.110Z,36.90
2018-05-08T17:29:37.082Z,36.90
2018-05-08T17:32:03.647Z,36.80
2018-05-08T17:34:29.899Z,37.00
2018-05-08T17:36:56.687Z,37.50
2018-05-08T17:39:24.117Z,37.90
2018-05-08T17:41:51.836Z,37.90
2018-05-08T17:44:18.740Z,37.80
2018-05-08T17:46:45.619Z,37.70
2018-05-08T17:49:12.975Z,38.40
2018-05-08T17:51:39.706Z,37.80
2018-05-08T17:54:07.041Z,38.40
2018-05-08T17:56:33.282Z,38.30
2018-05-08T17:59:00.793Z,38.20
2018-05-08T18:01:27.824Z,39.00
2018-05-08T18:03:55.247Z,38.70
2018-05-08T18:06:22.607Z,38.50
2018-05-08T18:08:50.033Z,38.40
2018-05-08T18:11:16.775Z,38.50
2018-05-08T18:13:43.363Z,38.20
2018-05-08T18:16:09.618Z,38.40
2018-05-08T18:18:36.908Z,38.60
2018-05-08T18:21:03.124Z,38.60
2018-05-08T18:23:30.200Z,38.80
2018-05-08T18:25:57.359Z,38.80
2018-05-08T18:28:23.584Z,39.40
2018-05-08T18:30:50.524Z,38.70
2018-05-08T18:33:16.749Z,38.90
2018-05-08T18:35:44.320Z,39.90
2018-05-08T18:38:11.007Z,39.90
2018-05-08T18:40:37.260Z,41.30
2018-05-08T18:43:03.928Z,41.50
2018-05-08T18:45:30.544Z,41.70
2018-05-08T18:47:57.532Z,41.70
2018-05-08T18:50:23.786Z,41.90
2018-05-08T18:52:50.718Z,42.50
2018-05-08T18:55:18.073Z,41.90
2018-05-08T18:57:45.440Z,42.30
2018-05-08T19:00:18.926Z,42.30
2018-05-08T19:02:46.339Z,47.10
2018-05-08T19:05:12.571Z,47.10
2018-05-08T19:07:38.785Z,44.40
2018-05-08T19:10:05.490Z,45.20
2018-05-08T19:12:32.487Z,44.90
2018-05-08T19:15:05.838Z,44.90
2018-05-08T19:17:32.113Z,45.40
2018-05-08T19:20:04.360Z,45.00
2018-05-08T19:22:31.876Z,45.50
2018-05-08T19:24:58.139Z,45.50
2018-05-08T19:27:25.126Z,46.40
2018-05-08T19:29:57.330Z,46.40
2018-05-08T19:32:23.993Z,46.40
2018-05-08T19:34:56.428Z,45.90
2018-05-08T19:37:28.794Z,47.30
2018-05-08T19:39:55.647Z,47.50
2018-05-08T19:42:22.101Z,46.80
2018-05-08T19:44:48.780Z,46.30
2018-05-08T19:47:15.360Z,47.10
2018-05-08T19:49:41.615Z,48.70
2018-05-08T19:52:08.294Z,48.20
2018-05-08T19:54:34.530Z,48.80
2018-05-08T19:57:01.263Z,49.00
2018-05-08T19:59:28.157Z,49.30
2018-05-08T20:01:55.580Z,50.50
2018-05-08T20:04:21.797Z,50.60
2018-05-08T20:06:48.066Z,51.30
2018-05-08T20:09:14.696Z,50.60
2018-05-08T20:11:40.921Z,51.20
2018-05-08T20:14:07.710Z,50.80
2018-05-08T20:16:34.686Z,52.20
2018-05-08T20:19:00.921Z,52.40
2018-05-08T20:21:27.744Z,53.30
2018-05-08T20:23:53.969Z,55.70
2018-05-08T20:26:21.529Z,53.70
2018-05-08T20:28:48.494Z,53.50
2018-05-08T20:31:15.904Z,53.50
2018-05-08T20:33:42.130Z,54.00
2018-05-08T20:36:08.378Z,52.70
2018-05-08T20:38:35.041Z,53.20
2018-05-08T20:41:01.314Z,54.90
2018-05-08T20:43:27.589Z,55.30
2018-05-08T20:45:54.705Z,56.60
2018-05-08T20:48:21.776Z,57.10
2018-05-08T20:50:48.481Z,56.80
2018-05-08T20:53:15.886Z,55.20
2018-05-08T20:55:42.912Z,55.30
2018-05-08T20:58:09.844Z,55.20
2018-05-08T21:00:37.328Z,56.40
2018-05-08T21:03:03.553Z,56.40
2018-05-08T21:05:30.285Z,55.70
2018-05-08T21:07:57.248Z,55.00
2018-05-08T21:10:24.084Z,55.10
2018-05-08T21:12:51.054Z,54.90
2018-05-08T21:15:17.724Z,55.00
2018-05-08T21:17:45.406Z,55.80
2018-05-08T21:20:11.697Z,55.50
2018-05-08T21:22:38.400Z,56.30
2018-05-08T21:25:04.730Z,58.20
2018-05-08T21:27:37.376Z,56.90
2018-05-08T21:30:10.294Z,59.10
2018-05-08T21:32:36.504Z,60.80
2018-05-08T21:35:03.133Z,58.30
2018-05-08T21:37:29.332Z,62.00
2018-05-08T21:39:57.104Z,59.50
2018-05-08T21:42:24.668Z,59.30
2018-05-08T21:44:52.132Z,59.60
2018-05-08T21:47:19.518Z,58.90
2018-05-08T21:49:46.048Z,59.00
2018-05-08T21:52:12.612Z,58.80
2018-05-08T21:54:38.848Z,60.90
2018-05-08T21:57:05.656Z,58.90
2018-05-08T21:59:33.217Z,64.10
2018-05-08T22:02:00.184Z,63.50
2018-05-08T22:04:27.368Z,63.80
2018-05-08T22:06:53.693Z,62.40
2018-05-08T22:09:19.903Z,62.20
2018-05-08T22:11:46.878Z,62.10
2018-05-08T22:14:13.632Z,62.20
2018-05-08T22:16:40.181Z,61.30
2018-05-08T22:19:06.397Z,61.90
2018-05-08T22:21:32.609Z,61.20
2018-05-08T22:23:59.598Z,61.30
2018-05-08T22:26:26.333Z,61.30
2018-05-08T22:28:52.540Z,61.80
2018-05-08T22:31:19.506Z,63.70
2018-05-08T22:33:45.741Z,63.80
2018-05-08T22:36:11.952Z,66.20
2018-05-08T22:38:39.512Z,63.60
2018-05-08T22:41:06.461Z,64.80
2018-05-08T22:43:33.822Z,65.00
2018-05-08T22:46:01.207Z,66.80
2018-05-08T22:48:27.893Z,67.30
2018-05-08T22:50:54.573Z,69.60
2018-05-08T22:53:22.125Z,65.50
2018-05-08T22:55:48.822Z,65.70
2018-05-08T22:58:15.025Z,66.70
2018-05-08T23:00:41.857Z,67.70
2018-05-08T23:03:08.813Z,65.90
2018-05-08T23:05:35.784Z,66.00
2018-05-08T23:08:02.131Z,66.00
2018-05-08T23:10:28.355Z,66.00
2018-05-08T23:12:54.976Z,66.70
2018-05-08T23:15:22.568Z,70.50
2018-05-08T23:17:48.784Z,70.80
2018-05-08T23:20:15.013Z,68.50
2018-05-08T23:22:42.397Z,71.20
2018-05-08T23:25:08.622Z,71.20
2018-05-08T23:27:34.841Z,72.20
2018-05-08T23:30:03.425Z,70.70
2018-05-08T23:32:30.413Z,69.80
2018-05-08T23:34:56.631Z,70.00
2018-05-08T23:37:22.861Z,67.50
2018-05-08T23:39:49.581Z,68.50
2018-05-08T23:42:17.150Z,70.60
2018-05-08T23:44:44.937Z,70.10
2018-05-08T23:47:11.559Z,70.10
2018-05-08T23:49:39.837Z,69.80
2018-05-08T23:52:06.441Z,69.90
2018-05-08T23:54:32.658Z,71.80
2018-05-08T23:56:58.883Z,72.10
2018-05-08T23:59:25.649Z,70.70
